createdAt,value
2023-03-24T00:00:13.743Z,4.72
2023-03-24T00:05:54.894Z,5.55
2023-03-24T00:13:49.599Z,5.70
2023-03-24T00:16:39.013Z,5.18
2023-03-24T00:19:15.358Z,5.75
2023-03-24T00:21:43.886Z,6.13
2023-03-24T00:24:14.649Z,5.40
2023-03-24T00:26:42.345Z,5.60
2023-03-24T00:29:11.847Z,5.28
2023-03-24T00:31:40.249Z,5.38
2023-03-24T00:34:09.031Z,5.20
2023-03-24T00:36:39.564Z,4.53
2023-03-24T00:39:06.903Z,5.05
2023-03-24T00:41:34.911Z,5.25
2023-03-24T00:44:09.922Z,4.93
2023-03-24T00:46:39.297Z,5.13
2023-03-24T00:49:08.298Z,5.30
2023-03-24T00:51:42.355Z,4.60
2023-03-24T00:54:39.738Z,4.82
2023-03-24T00:59:57.677Z,4.55
2023-03-24T01:02:41.607Z,4.57
2023-03-24T01:19:55.772Z,4.28
2023-03-24T01:22:27.360Z,4.55
2023-03-24T01:24:54.793Z,4.18
2023-03-24T01:27:22.202Z,4.22
2023-03-24T01:29:49.528Z,4.70
2023-03-24T01:32:16.868Z,4.72
2023-03-24T01:34:44.172Z,4.88
2023-03-24T01:37:11.486Z,4.82
2023-03-24T01:39:39.054Z,4.63
2023-03-24T01:42:06.589Z,4.70
2023-03-24T01:44:38.191Z,4.38
2023-03-24T01:47:08.961Z,4.38
2023-03-24T01:49:39.697Z,4.68
2023-03-24T01:52:18.036Z,4.97
2023-03-24T01:54:53.038Z,5.40
2023-03-24T01:57:41.130Z,5.57
2023-03-24T02:00:11.664Z,3.92
2023-03-24T02:02:43.363Z,3.85
2023-03-24T02:05:13.629Z,2.80
2023-03-24T02:07:49.930Z,2.00
2023-03-24T02:10:19.138Z,1.77
2023-03-24T02:12:46.787Z,1.70
2023-03-24T02:15:17.748Z,1.85
2023-03-24T02:18:08.009Z,1.98
2023-03-24T02:20:44.805Z,1.80
2023-03-24T02:24:00.464Z,1.67
2023-03-24T02:26:48.537Z,2.10
2023-03-24T02:29:53.160Z,2.20
2023-03-24T02:32:45.532Z,2.03
2023-03-24T02:35:37.588Z,2.73
2023-03-24T02:38:34.562Z,2.75
2023-03-24T02:41:10.948Z,2.67
2023-03-24T02:44:19.100Z,2.60
2023-03-24T02:46:50.567Z,2.50
2023-03-24T02:49:28.750Z,2.28
2023-03-24T02:52:05.405Z,2.50
2023-03-24T02:54:55.860Z,2.30
2023-03-24T02:57:31.273Z,2.58
2023-03-24T03:00:02.383Z,2.10
2023-03-24T03:02:33.492Z,2.63
2023-03-24T03:05:13.982Z,2.10
2023-03-24T03:07:42.470Z,2.75
2023-03-24T03:10:22.086Z,3.25
2023-03-24T03:12:52.728Z,2.67
2023-03-24T03:15:24.183Z,2.72
2023-03-24T03:18:06.223Z,2.95
2023-03-24T03:20:38.350Z,3.28
2023-03-24T03:23:13.585Z,3.30
2023-03-24T03:25:51.224Z,4.05
2023-03-24T03:28:23.560Z,3.13
2023-03-24T03:30:57.168Z,4.10
2023-03-24T03:33:31.348Z,3.83
2023-03-24T03:36:08.224Z,3.95
2023-03-24T03:38:49.620Z,3.78
2023-03-24T03:41:18.411Z,3.70
2023-03-24T03:43:47.099Z,4.07
2023-03-24T03:46:14.941Z,4.25
2023-03-24T03:48:42.579Z,3.90
2023-03-24T03:51:14.147Z,3.85
2023-03-24T03:53:55.419Z,4.00
2023-03-24T03:59:36.054Z,3.70
2023-03-24T04:02:32.135Z,3.83
2023-03-24T04:05:44.336Z,4.13
2023-03-24T04:08:27.697Z,5.28
2023-03-24T04:11:14.055Z,4.38
2023-03-24T04:14:27.340Z,4.82
2023-03-24T04:16:57.758Z,4.30
2023-03-24T04:19:48.269Z,4.53
2023-03-24T04:22:26.005Z,5.05
2023-03-24T04:25:31.348Z,4.85
2023-03-24T04:28:07.406Z,5.00
2023-03-24T04:31:04.790Z,4.65
2023-03-24T04:34:04.645Z,4.40
2023-03-24T04:39:50.682Z,4.93
2023-03-24T04:42:32.869Z,4.82
2023-03-24T04:45:01.270Z,4.57
2023-03-24T04:47:34.206Z,4.38
2023-03-24T04:52:34.381Z,4.80
2023-03-24T04:57:29.070Z,5.72
2023-03-24T04:59:56.804Z,4.93
2023-03-24T05:02:24.134Z,5.22
2023-03-24T05:04:51.502Z,5.72
2023-03-24T05:07:18.878Z,4.95
2023-03-24T05:09:46.426Z,4.95
2023-03-24T05:12:13.859Z,4.97
2023-03-24T05:14:41.184Z,4.55
2023-03-24T05:17:11.294Z,4.80
2023-03-24T05:19:38.901Z,4.57
2023-03-24T05:22:06.462Z,4.55
2023-03-24T05:24:34.855Z,4.32
2023-03-24T05:27:02.192Z,4.07
2023-03-24T05:29:29.512Z,4.78
2023-03-24T05:31:56.853Z,4.63
2023-03-24T05:34:24.170Z,4.45
2023-03-24T05:36:51.498Z,4.80
2023-03-24T05:39:18.991Z,4.30
2023-03-24T05:41:46.552Z,4.47
2023-03-24T05:44:13.910Z,4.70
2023-03-24T05:46:42.586Z,4.88
2023-03-24T05:49:10.464Z,4.68
2023-03-24T05:51:37.929Z,4.05
2023-03-24T05:54:06.146Z,4.78
2023-03-24T05:56:33.778Z,4.15
2023-03-24T05:59:01.173Z,4.70
2023-03-24T06:01:29.038Z,5.00
2023-03-24T06:03:56.615Z,4.13
2023-03-24T06:06:24.069Z,4.40
2023-03-24T06:08:57.069Z,4.03
2023-03-24T06:11:24.397Z,4.75
2023-03-24T06:13:59.134Z,5.05
2023-03-24T06:16:33.846Z,4.18
2023-03-24T06:19:01.216Z,4.00
2023-03-24T06:21:33.203Z,4.38
2023-03-24T06:24:03.197Z,4.40
2023-03-24T06:26:30.916Z,4.03
2023-03-24T06:28:58.990Z,4.40
2023-03-24T06:31:29.744Z,4.90
2023-03-24T06:33:57.694Z,4.40
2023-03-24T06:36:27.932Z,4.75
2023-03-24T06:38:56.337Z,3.95
2023-03-24T06:41:24.573Z,4.18
2023-03-24T06:43:51.909Z,4.60
2023-03-24T06:46:19.298Z,3.88
2023-03-24T06:48:47.038Z,4.00
2023-03-24T06:51:14.270Z,4.78
2023-03-24T06:53:41.613Z,3.92
2023-03-24T06:56:09.084Z,4.07
2023-03-24T06:58:36.749Z,3.92
2023-03-24T07:01:04.101Z,4.32
2023-03-24T07:03:31.695Z,4.10
2023-03-24T07:06:00.745Z,4.30
2023-03-24T07:08:37.330Z,4.20
2023-03-24T07:11:07.065Z,4.45
2023-03-24T07:13:34.765Z,5.20
2023-03-24T07:16:02.278Z,3.90
2023-03-24T07:18:33.618Z,4.30
2023-03-24T07:21:01.443Z,4.20
2023-03-24T07:23:30.340Z,4.43
2023-03-24T07:25:57.811Z,4.30
2023-03-24T07:28:25.412Z,4.15
2023-03-24T07:30:54.941Z,4.22
2023-03-24T07:33:25.030Z,4.78
2023-03-24T07:35:56.355Z,4.70
2023-03-24T07:38:27.820Z,4.47
2023-03-24T07:41:02.647Z,4.55
2023-03-24T07:43:33.923Z,3.72
2023-03-24T07:46:17.748Z,4.57
2023-03-24T07:51:41.104Z,4.30
2023-03-24T07:54:10.241Z,3.97
2023-03-24T07:56:37.676Z,4.20
2023-03-24T07:59:05.044Z,4.90
2023-03-24T08:01:33.166Z,4.00
2023-03-24T08:04:00.740Z,4.47
2023-03-24T08:06:29.547Z,3.92
2023-03-24T08:08:56.994Z,5.13
2023-03-24T08:11:27.644Z,4.68
2023-03-24T08:13:54.892Z,4.32
2023-03-24T08:16:22.688Z,4.80
2023-03-24T08:18:56.920Z,4.05
2023-03-24T08:21:25.457Z,4.57
2023-03-24T08:23:53.123Z,4.72
2023-03-24T08:26:20.480Z,4.85
2023-03-24T08:28:47.879Z,4.72
2023-03-24T08:31:15.264Z,4.65
2023-03-24T08:33:42.780Z,3.90
2023-03-24T08:36:10.198Z,4.47
2023-03-24T08:38:38.923Z,4.25
2023-03-24T08:41:07.202Z,4.18
2023-03-24T08:43:36.812Z,4.50
2023-03-24T08:46:06.813Z,4.10
2023-03-24T08:48:34.940Z,4.20
2023-03-24T08:51:10.223Z,4.18
2023-03-24T08:53:37.555Z,4.03
2023-03-24T08:56:06.737Z,3.80
2023-03-24T08:58:34.412Z,4.97
2023-03-24T09:01:02.814Z,3.80
2023-03-24T09:03:30.954Z,3.55
2023-03-24T09:05:58.953Z,3.65
2023-03-24T09:08:27.713Z,4.05
2023-03-24T09:10:56.523Z,3.92
2023-03-24T09:13:24.463Z,3.90
2023-03-24T09:15:54.579Z,4.10
2023-03-24T09:18:22.592Z,3.92
2023-03-24T09:20:50.711Z,3.90
2023-03-24T09:23:18.424Z,4.75
2023-03-24T09:25:46.340Z,5.68
2023-03-24T09:28:15.033Z,4.22
2023-03-24T09:30:43.960Z,4.88
2023-03-24T09:33:13.836Z,4.43
2023-03-24T09:35:41.606Z,4.88
2023-03-24T09:38:11.577Z,3.67
2023-03-24T09:40:41.624Z,4.13
2023-03-24T09:43:32.812Z,4.25
2023-03-24T09:46:02.695Z,3.97
2023-03-24T09:48:49.842Z,4.07
2023-03-24T09:51:27.498Z,4.10
2023-03-24T09:54:19.048Z,4.60
2023-03-24T09:56:51.325Z,4.03
2023-03-24T10:01:48.371Z,3.78
2023-03-24T10:04:19.342Z,3.75
2023-03-24T10:06:53.451Z,3.53
2023-03-24T10:09:32.842Z,3.65
2023-03-24T10:12:15.432Z,3.83
2023-03-24T10:14:57.963Z,3.70
2023-03-24T10:17:28.333Z,4.10
2023-03-24T10:20:09.944Z,4.00
2023-03-24T10:22:41.323Z,4.10
2023-03-24T10:25:26.817Z,4.22
2023-03-24T10:28:15.486Z,2.90
2023-03-24T10:30:45.366Z,2.90
2023-03-24T10:33:15.020Z,3.10
2023-03-24T10:35:54.548Z,2.97
2023-03-24T10:38:23.281Z,2.90
2023-03-24T10:40:51.146Z,3.05
2023-03-24T10:43:21.332Z,3.33
2023-03-24T10:45:53.098Z,3.03
2023-03-24T10:48:44.583Z,3.22
2023-03-24T10:51:17.014Z,3.55
2023-03-24T10:53:48.553Z,3.13
2023-03-24T10:56:39.380Z,3.55
2023-03-24T10:59:46.320Z,3.53
2023-03-24T11:02:13.578Z,3.92
2023-03-24T11:04:44.579Z,2.75
2023-03-24T11:07:18.256Z,2.78
2023-03-24T11:10:10.751Z,2.80
2023-03-24T11:12:43.769Z,3.10
2023-03-24T11:15:22.752Z,3.00
2023-03-24T11:18:11.189Z,3.50
2023-03-24T11:20:41.419Z,3.55
2023-03-24T11:23:31.268Z,3.33
2023-03-24T11:26:18.425Z,3.20
2023-03-24T11:28:54.316Z,3.42
2023-03-24T11:31:30.541Z,3.10
2023-03-24T11:34:08.548Z,3.30
2023-03-24T11:36:49.304Z,2.22
2023-03-24T11:39:28.114Z,2.85
2023-03-24T11:42:16.360Z,2.63
2023-03-24T11:44:49.516Z,2.75
2023-03-24T11:47:21.736Z,2.80
2023-03-24T11:50:04.965Z,2.80
2023-03-24T11:52:44.296Z,3.05
2023-03-24T11:55:24.440Z,2.38
2023-03-24T11:58:05.891Z,3.20
2023-03-24T12:00:57.803Z,2.55
2023-03-24T12:03:50.235Z,2.90
2023-03-24T12:06:26.748Z,3.10
2023-03-24T12:09:24.466Z,3.08
2023-03-24T12:12:25.862Z,2.90
2023-03-24T12:14:58.967Z,2.70
2023-03-24T12:17:42.893Z,2.78
2023-03-24T12:20:30.745Z,3.10
2023-03-24T12:23:07.310Z,2.97
2023-03-24T12:26:04.041Z,3.00
2023-03-24T12:29:20.230Z,2.80
2023-03-24T12:32:09.261Z,3.13
2023-03-24T12:34:45.986Z,2.63
2023-03-24T12:37:38.593Z,3.25
2023-03-24T12:40:11.668Z,2.65
2023-03-24T12:42:47.117Z,2.88
2023-03-24T12:45:49.118Z,2.28
2023-03-24T12:48:42.692Z,2.60
2023-03-24T12:51:53.060Z,2.85
2023-03-24T12:54:32.775Z,2.38
2023-03-24T12:57:04.482Z,3.20
2023-03-24T12:59:49.164Z,2.50
2023-03-24T13:03:09.069Z,2.30
2023-03-24T13:05:46.413Z,2.30
2023-03-24T13:08:29.418Z,2.20
2023-03-24T13:11:02.869Z,2.65
2023-03-24T13:13:40.405Z,2.67
2023-03-24T13:16:23.625Z,2.20
2023-03-24T13:18:56.800Z,2.03
2023-03-24T13:21:26.535Z,2.35
2023-03-24T13:24:15.121Z,2.80
2023-03-24T13:27:00.814Z,2.80
2023-03-24T13:29:49.712Z,2.70
2023-03-24T13:32:26.462Z,2.50
2023-03-24T13:35:07.336Z,2.50
2023-03-24T13:37:53.974Z,2.15
2023-03-24T13:40:25.613Z,2.10
2023-03-24T13:43:01.409Z,2.45
2023-03-24T13:45:51.976Z,2.40
2023-03-24T13:48:45.356Z,2.10
2023-03-24T13:51:31.851Z,2.17
2023-03-24T13:54:14.867Z,2.25
2023-03-24T13:57:24.345Z,2.35
2023-03-24T14:00:31.763Z,2.10
2023-03-24T14:03:06.262Z,1.92
2023-03-24T14:05:42.419Z,2.20
2023-03-24T14:08:11.334Z,2.00
2023-03-24T14:10:43.143Z,1.92
2023-03-24T14:13:13.612Z,2.53
2023-03-24T14:15:50.283Z,2.13
2023-03-24T14:18:24.187Z,2.88
2023-03-24T14:21:00.398Z,2.88
2023-03-24T14:24:03.058Z,2.72
2023-03-24T14:26:46.167Z,2.30
2023-03-24T14:32:20.562Z,2.35
2023-03-24T14:34:54.805Z,2.72
2023-03-24T14:37:23.537Z,3.13
2023-03-24T14:40:29.158Z,2.38
2023-03-24T14:43:08.187Z,2.35
2023-03-24T14:49:14.091Z,2.72
2023-03-24T14:52:20.029Z,2.72
2023-03-24T14:54:54.669Z,2.90
2023-03-24T14:58:03.359Z,2.80
2023-03-24T15:00:58.019Z,3.25
2023-03-24T15:04:17.681Z,3.30
2023-03-24T15:06:49.671Z,3.10
2023-03-24T15:15:00.965Z,3.25
2023-03-24T15:17:31.505Z,3.75
2023-03-24T15:20:11.683Z,3.40
2023-03-24T15:22:45.912Z,3.25
2023-03-24T15:25:21.511Z,3.38
2023-03-24T15:27:52.627Z,3.80
2023-03-24T15:30:35.024Z,4.00
2023-03-24T15:33:47.242Z,3.60
2023-03-24T15:36:25.716Z,3.53
2023-03-24T15:38:53.872Z,3.42
2023-03-24T15:41:23.167Z,3.35
2023-03-24T15:43:54.452Z,4.10
2023-03-24T15:46:44.370Z,3.50
2023-03-24T15:49:24.524Z,3.72
2023-03-24T15:52:01.907Z,3.40
2023-03-24T15:54:39.468Z,3.15
2023-03-24T15:57:14.901Z,3.63
2023-03-24T16:00:01.052Z,3.42
2023-03-24T16:02:29.866Z,4.20
2023-03-24T16:05:11.306Z,3.38
2023-03-24T16:07:42.928Z,3.45
2023-03-24T16:10:32.338Z,3.15
2023-03-24T16:13:19.532Z,3.13
2023-03-24T16:15:59.525Z,3.72
2023-03-24T16:18:37.357Z,3.17
2023-03-24T16:21:25.703Z,4.00
2023-03-24T16:23:54.450Z,3.30
2023-03-24T16:26:24.115Z,4.30
2023-03-24T16:28:52.807Z,3.80
2023-03-24T16:31:22.109Z,3.22
2023-03-24T16:33:51.161Z,3.28
2023-03-24T16:36:18.862Z,3.60
2023-03-24T16:38:51.722Z,2.83
2023-03-24T16:43:47.011Z,3.40
2023-03-24T16:46:16.284Z,3.95
2023-03-24T16:48:44.259Z,3.33
2023-03-24T16:51:14.006Z,3.83
2023-03-24T16:53:44.917Z,3.45
2023-03-24T16:56:19.608Z,3.53
2023-03-24T16:58:54.807Z,3.28
2023-03-24T17:01:47.945Z,3.90
2023-03-24T17:04:45.745Z,3.50
2023-03-24T17:07:15.618Z,3.40
2023-03-24T17:09:42.949Z,3.92
2023-03-24T17:12:10.497Z,3.35
2023-03-24T17:14:38.128Z,3.28
2023-03-24T17:17:11.337Z,3.70
2023-03-24T17:19:42.741Z,3.42
2023-03-24T17:22:13.605Z,4.22
2023-03-24T17:24:43.270Z,3.65
2023-03-24T17:27:21.336Z,3.50
2023-03-24T17:29:50.357Z,2.95
2023-03-24T17:32:19.933Z,3.55
2023-03-24T17:34:51.498Z,3.28
2023-03-24T17:37:27.993Z,3.42
2023-03-24T17:40:02.973Z,4.18
2023-03-24T17:42:40.343Z,3.67
2023-03-24T17:48:06.971Z,3.40
2023-03-24T17:50:39.494Z,2.75
2023-03-24T17:53:09.467Z,2.97
2023-03-24T17:55:36.879Z,2.38
2023-03-24T17:58:04.348Z,2.13
2023-03-24T18:00:31.642Z,2.00
2023-03-24T18:03:03.526Z,2.20
2023-03-24T18:05:31.061Z,2.60
2023-03-24T18:07:59.233Z,2.35
2023-03-24T18:10:27.844Z,2.15
2023-03-24T18:12:55.845Z,2.50
2023-03-24T18:15:25.989Z,2.38
2023-03-24T18:17:55.917Z,2.50
2023-03-24T18:20:23.300Z,2.30
2023-03-24T18:22:51.358Z,2.45
2023-03-24T18:25:19.151Z,2.20
2023-03-24T18:27:46.499Z,2.50
2023-03-24T18:30:14.385Z,2.15
2023-03-24T18:32:42.870Z,2.03
2023-03-24T18:35:17.041Z,2.83
2023-03-24T18:37:44.821Z,1.95
2023-03-24T18:40:12.674Z,2.28
2023-03-24T18:42:40.388Z,2.53
2023-03-24T18:45:08.273Z,3.10
2023-03-24T18:47:35.853Z,1.92
2023-03-24T18:50:03.610Z,2.42
2023-03-24T18:52:33.916Z,1.85
2023-03-24T18:55:02.765Z,2.53
2023-03-24T18:57:31.163Z,2.10
2023-03-24T18:59:58.461Z,2.58
2023-03-24T19:02:26.309Z,2.42
2023-03-24T19:04:54.758Z,2.03
2023-03-24T19:07:26.148Z,2.17
2023-03-24T19:09:54.686Z,2.45
2023-03-24T19:12:21.935Z,2.10
2023-03-24T19:14:49.703Z,2.20
2023-03-24T19:17:16.983Z,2.13
2023-03-24T19:19:44.357Z,2.42
2023-03-24T19:22:11.735Z,2.03
2023-03-24T19:24:39.006Z,2.35
2023-03-24T19:27:08.253Z,2.70
2023-03-24T19:29:35.758Z,2.05
2023-03-24T19:32:03.130Z,2.63
2023-03-24T19:34:31.023Z,2.20
2023-03-24T19:36:58.346Z,2.70
2023-03-24T19:39:26.531Z,2.55
2023-03-24T19:41:57.404Z,1.98
2023-03-24T19:44:24.875Z,2.78
2023-03-24T19:46:52.350Z,2.47
2023-03-24T19:49:21.382Z,2.10
2023-03-24T19:51:50.915Z,2.40
2023-03-24T19:54:19.433Z,2.70
2023-03-24T19:56:46.887Z,2.40
2023-03-24T19:59:14.197Z,2.17
2023-03-24T20:01:41.686Z,2.38
2023-03-24T20:04:10.289Z,2.60
2023-03-24T20:06:37.537Z,2.45
2023-03-24T20:09:05.182Z,2.08
2023-03-24T20:11:32.530Z,2.17
2023-03-24T20:13:59.923Z,2.40
2023-03-24T20:16:27.330Z,2.42
2023-03-24T20:18:54.822Z,2.22
2023-03-24T20:21:23.110Z,2.25
2023-03-24T20:23:51.444Z,2.75
2023-03-24T20:26:19.463Z,2.20
2023-03-24T20:28:48.176Z,2.60
2023-03-24T20:31:15.785Z,2.40
2023-03-24T20:33:43.270Z,2.50
2023-03-24T20:36:11.802Z,2.58
2023-03-24T20:38:39.281Z,2.92
2023-03-24T20:41:07.804Z,2.53
2023-03-24T20:43:37.507Z,2.85
2023-03-24T20:46:07.179Z,2.67
2023-03-24T20:48:34.949Z,2.40
2023-03-24T20:51:03.607Z,2.40
2023-03-24T20:53:35.829Z,2.83
2023-03-24T20:56:06.655Z,2.25
2023-03-24T20:58:35.702Z,3.13
2023-03-24T21:01:13.918Z,3.10
2023-03-24T21:03:41.844Z,2.78
2023-03-24T21:06:10.895Z,2.50
2023-03-24T21:08:38.695Z,2.85
2023-03-24T21:11:06.167Z,2.88
2023-03-24T21:16:08.918Z,2.55
2023-03-24T21:18:37.736Z,2.45
2023-03-24T21:21:12.594Z,2.42
2023-03-24T21:23:43.569Z,2.70
2023-03-24T21:26:15.284Z,2.60
2023-03-24T21:28:42.812Z,2.50
2023-03-24T21:31:14.905Z,2.67
2023-03-24T21:33:43.536Z,3.05
2023-03-24T21:36:12.479Z,2.70
2023-03-24T21:38:40.360Z,3.10
2023-03-24T21:41:08.092Z,2.78
2023-03-24T21:43:38.135Z,3.20
2023-03-24T21:46:05.860Z,2.58
2023-03-24T21:48:34.915Z,2.42
2023-03-24T21:51:04.182Z,3.10
2023-03-24T21:53:32.008Z,2.67
2023-03-24T21:56:08.657Z,2.55
2023-03-24T21:58:36.404Z,2.53
2023-03-24T22:01:09.907Z,2.28
2023-03-24T22:03:37.494Z,3.05
2023-03-24T22:06:29.270Z,2.53
2023-03-24T22:09:06.406Z,2.35
2023-03-24T22:11:35.159Z,3.15
2023-03-24T22:14:05.956Z,2.53
2023-03-24T22:16:34.604Z,2.55
2023-03-24T22:19:02.088Z,2.25
2023-03-24T22:21:35.045Z,2.42
2023-03-24T22:24:02.645Z,2.97
2023-03-24T22:26:30.613Z,2.85
2023-03-24T22:28:59.093Z,2.83
2023-03-24T22:31:29.273Z,3.00
2023-03-24T22:33:57.130Z,2.78
2023-03-24T22:36:24.489Z,2.85
2023-03-24T22:38:51.810Z,2.90
2023-03-24T22:41:19.104Z,3.00
2023-03-24T22:43:46.885Z,2.83
2023-03-24T22:46:14.278Z,3.25
2023-03-24T22:48:41.958Z,2.95
2023-03-24T22:51:16.983Z,3.42
2023-03-24T22:53:46.702Z,2.85
2023-03-24T22:56:15.452Z,3.33
2023-03-24T22:58:42.911Z,3.03
2023-03-24T23:01:10.628Z,3.45
2023-03-24T23:03:40.660Z,3.88
2023-03-24T23:06:09.375Z,3.20
2023-03-24T23:08:37.568Z,3.17
2023-03-24T23:11:06.670Z,2.50
2023-03-24T23:13:36.778Z,3.63
2023-03-24T23:16:04.500Z,3.20
2023-03-24T23:18:34.981Z,3.30
2023-03-24T23:21:04.743Z,3.17
2023-03-24T23:23:32.074Z,3.28
2023-03-24T23:25:59.414Z,3.45
2023-03-24T23:28:26.750Z,3.67
2023-03-24T23:30:54.637Z,3.70
2023-03-24T23:33:22.364Z,3.80
2023-03-24T23:35:59.419Z,3.55
2023-03-24T23:38:27.413Z,2.92
2023-03-24T23:40:54.876Z,3.67
2023-03-24T23:43:22.456Z,3.92
2023-03-24T23:45:50.059Z,4.18
2023-03-24T23:48:17.557Z,3.85
2023-03-24T23:50:49.365Z,3.58
2023-03-24T23:53:16.649Z,3.78
2023-03-24T23:55:43.868Z,3.65
2023-03-24T23:58:11.175Z,3.17
